Fleur De Lys, Canada
Current Conditions -  °F | °C
As of 6:00 PM on Saturday 22 Nov 2014 (Local Time) from CWDH Reporting Station
Clear Clear  
Wind Chill: 12°   Ceiling: Unl
Heat Index: 27°   Visibility: 9mi
Dew Point: 12°   Wind: 26mph
Humidity: 53%   Direction: 260°W
Pressure: 29.59"   Gusts: 40mph
Location:  50.13°N, 56.1°W
Report Text: CWDH 222100Z AUTO 26023G35KT 9SM NSC M03/M11 A2959 RMK SLP024 PK WND 26037/// T10271112 70002 WSI/SWOB
Loading
Personal Weather Stations






























Interactive Weather Map New forecast layout! Learn more

10-Day Weather Forecast

Advertisements
Track Severe Weather on mobile